sensor_id;sensor_type;location;lat;lon;timestamp;pressure;altitude;pressure_sealevel;temperature;humidity
82171;BME280;71755;48.038;14.346;2023-12-20T00:01:37;97455.31;;;-0.29;98.28
82171;BME280;71755;48.038;14.346;2023-12-20T00:04:03;97451.25;;;-0.32;97.72
82171;BME280;71755;48.038;14.346;2023-12-20T00:06:32;97458.03;;;-0.37;97.81
82171;BME280;71755;48.038;14.346;2023-12-20T00:08:58;97448.38;;;-0.45;97.98
82171;BME280;71755;48.038;14.346;2023-12-20T00:11:24;97439.69;;;-0.45;98.33
82171;BME280;71755;48.038;14.346;2023-12-20T00:13:49;97446.75;;;-0.46;98.37
82171;BME280;71755;48.038;14.346;2023-12-20T00:16:15;97455.22;;;-0.36;97.79
82171;BME280;71755;48.038;14.346;2023-12-20T00:18:41;97452.19;;;-0.47;98.14
82171;BME280;71755;48.038;14.346;2023-12-20T00:21:07;97455.53;;;-0.53;98.46
82171;BME280;71755;48.038;14.346;2023-12-20T00:23:32;97458.78;;;-0.51;98.47
82171;BME280;71755;48.038;14.346;2023-12-20T00:25:58;97441.59;;;-0.54;98.25
82171;BME280;71755;48.038;14.346;2023-12-20T00:28:24;97443.69;;;-0.49;98.43
82171;BME280;71755;48.038;14.346;2023-12-20T00:30:50;97450.72;;;-0.27;97.23
82171;BME280;71755;48.038;14.346;2023-12-20T00:33:16;97443.19;;;-0.01;95.87
82171;BME280;71755;48.038;14.346;2023-12-20T00:35:42;97433.31;;;0.31;93.83
82171;BME280;71755;48.038;14.346;2023-12-20T00:38:08;97438.88;;;0.21;93.89
82171;BME280;71755;48.038;14.346;2023-12-20T00:40:35;97432.97;;;0.34;93.16
82171;BME280;71755;48.038;14.346;2023-12-20T00:43:01;97422.94;;;0.38;92.45
82171;BME280;71755;48.038;14.346;2023-12-20T00:45:27;97429.44;;;0.27;93.38
82171;BME280;71755;48.038;14.346;2023-12-20T00:47:52;97418.97;;;0.63;91.12
82171;BME280;71755;48.038;14.346;2023-12-20T00:50:18;97401.56;;;1.19;87.58
82171;BME280;71755;48.038;14.346;2023-12-20T00:52:44;97406.03;;;1.47;86.03
82171;BME280;71755;48.038;14.346;2023-12-20T00:55:10;97401.06;;;1.59;84.70
82171;BME280;71755;48.038;14.346;2023-12-20T00:57:36;97399.19;;;1.80;83.10
82171;BME280;71755;48.038;14.346;2023-12-20T01:00:01;97388.78;;;2.00;81.96
82171;BME280;71755;48.038;14.346;2023-12-20T01:02:28;97390.38;;;1.95;82.13
82171;BME280;71755;48.038;14.346;2023-12-20T01:04:54;97391.34;;;1.59;84.24
82171;BME280;71755;48.038;14.346;2023-12-20T01:07:20;97380.00;;;1.09;87.04
82171;BME280;71755;48.038;14.346;2023-12-20T01:09:47;97374.06;;;0.79;89.38
82171;BME280;71755;48.038;14.346;2023-12-20T01:12:13;97366.03;;;0.66;90.32
82171;BME280;71755;48.038;14.346;2023-12-20T01:14:38;97361.97;;;0.63;90.66
82171;BME280;71755;48.038;14.346;2023-12-20T01:17:05;97360.00;;;0.51;91.73
82171;BME280;71755;48.038;14.346;2023-12-20T01:19:31;97350.81;;;0.40;92.45
82171;BME280;71755;48.038;14.346;2023-12-20T01:21:57;97342.63;;;0.35;92.74
82171;BME280;71755;48.038;14.346;2023-12-20T01:24:23;97340.63;;;0.37;92.87
82171;BME280;71755;48.038;14.346;2023-12-20T01:26:49;97344.09;;;0.38;92.79
82171;BME280;71755;48.038;14.346;2023-12-20T01:29:15;97341.91;;;0.41;92.65
82171;BME280;71755;48.038;14.346;2023-12-20T01:31:41;97338.19;;;0.36;93.02
82171;BME280;71755;48.038;14.346;2023-12-20T01:34:07;97331.94;;;0.37;92.89
82171;BME280;71755;48.038;14.346;2023-12-20T01:36:33;97335.13;;;0.32;93.28
82171;BME280;71755;48.038;14.346;2023-12-20T01:38:59;97333.50;;;0.31;93.06
82171;BME280;71755;48.038;14.346;2023-12-20T01:41:25;97326.25;;;0.33;93.22
82171;BME280;71755;48.038;14.346;2023-12-20T01:43:51;97319.00;;;0.35;93.08
82171;BME280;71755;48.038;14.346;2023-12-20T01:46:19;97307.66;;;0.35;93.49
82171;BME280;71755;48.038;14.346;2023-12-20T01:48:48;97293.09;;;0.32;93.51
82171;BME280;71755;48.038;14.346;2023-12-20T01:51:14;97304.28;;;0.19;93.89
82171;BME280;71755;48.038;14.346;2023-12-20T01:53:41;97294.59;;;0.20;94.21
82171;BME280;71755;48.038;14.346;2023-12-20T01:56:08;97289.97;;;0.22;94.31
82171;BME280;71755;48.038;14.346;2023-12-20T01:58:34;97287.03;;;0.31;94.77
82171;BME280;71755;48.038;14.346;2023-12-20T02:01:03;97283.72;;;0.23;94.81
82171;BME280;71755;48.038;14.346;2023-12-20T02:03:29;97279.69;;;0.27;94.87
82171;BME280;71755;48.038;14.346;2023-12-20T02:05:54;97281.53;;;0.26;94.91
82171;BME280;71755;48.038;14.346;2023-12-20T02:08:20;97286.59;;;0.28;94.98
82171;BME280;71755;48.038;14.346;2023-12-20T02:10:47;97286.22;;;0.31;94.96
82171;BME280;71755;48.038;14.346;2023-12-20T02:13:12;97280.16;;;0.30;94.82
82171;BME280;71755;48.038;14.346;2023-12-20T02:15:38;97272.44;;;0.29;94.79
82171;BME280;71755;48.038;14.346;2023-12-20T02:18:06;97275.44;;;0.26;95.21
82171;BME280;71755;48.038;14.346;2023-12-20T02:20:32;97266.69;;;0.19;95.81
82171;BME280;71755;48.038;14.346;2023-12-20T02:22:57;97263.44;;;0.17;96.76
82171;BME280;71755;48.038;14.346;2023-12-20T02:25:23;97252.38;;;0.21;97.14
82171;BME280;71755;48.038;14.346;2023-12-20T02:27:49;97253.50;;;0.34;97.01
82171;BME280;71755;48.038;14.346;2023-12-20T02:30:16;97255.84;;;0.43;96.22
82171;BME280;71755;48.038;14.346;2023-12-20T02:32:41;97253.84;;;0.45;95.64
82171;BME280;71755;48.038;14.346;2023-12-20T02:35:07;97253.22;;;0.43;95.57
82171;BME280;71755;48.038;14.346;2023-12-20T02:37:33;97245.09;;;0.38;95.30
82171;BME280;71755;48.038;14.346;2023-12-20T02:39:59;97236.19;;;0.39;95.09
82171;BME280;71755;48.038;14.346;2023-12-20T02:42:25;97240.31;;;0.48;94.95
82171;BME280;71755;48.038;14.346;2023-12-20T02:44:51;97229.44;;;0.51;94.56
82171;BME280;71755;48.038;14.346;2023-12-20T02:47:17;97231.06;;;0.52;94.17
82171;BME280;71755;48.038;14.346;2023-12-20T02:49:43;97220.91;;;0.49;93.82
82171;BME280;71755;48.038;14.346;2023-12-20T02:52:09;97213.22;;;0.48;93.50
82171;BME280;71755;48.038;14.346;2023-12-20T02:54:35;97217.84;;;0.46;93.31
82171;BME280;71755;48.038;14.346;2023-12-20T02:57:00;97224.31;;;0.43;93.27
82171;BME280;71755;48.038;14.346;2023-12-20T02:59:26;97214.59;;;0.44;93.63
82171;BME280;71755;48.038;14.346;2023-12-20T03:01:52;97201.28;;;0.45;93.77
82171;BME280;71755;48.038;14.346;2023-12-20T03:04:18;97209.53;;;0.42;94.01
82171;BME280;71755;48.038;14.346;2023-12-20T03:06:43;97199.22;;;0.41;94.05
82171;BME280;71755;48.038;14.346;2023-12-20T03:09:09;97196.13;;;0.37;93.84
82171;BME280;71755;48.038;14.346;2023-12-20T03:11:35;97200.03;;;0.41;93.74
82171;BME280;71755;48.038;14.346;2023-12-20T03:14:01;97201.56;;;0.57;92.17
82171;BME280;71755;48.038;14.346;2023-12-20T03:16:26;97198.00;;;0.65;92.72
82171;BME280;71755;48.038;14.346;2023-12-20T03:18:52;97205.06;;;0.64;91.80
82171;BME280;71755;48.038;14.346;2023-12-20T03:21:19;97198.38;;;0.61;91.18
82171;BME280;71755;48.038;14.346;2023-12-20T03:23:45;97196.75;;;0.60;90.40
82171;BME280;71755;48.038;14.346;2023-12-20T03:26:11;97198.06;;;0.50;91.44
82171;BME280;71755;48.038;14.346;2023-12-20T03:28:36;97198.91;;;0.50;90.99
82171;BME280;71755;48.038;14.346;2023-12-20T03:31:03;97195.84;;;0.47;91.08
82171;BME280;71755;48.038;14.346;2023-12-20T03:33:29;97191.34;;;0.41;91.69
82171;BME280;71755;48.038;14.346;2023-12-20T03:35:55;97209.09;;;0.39;92.14
82171;BME280;71755;48.038;14.346;2023-12-20T03:38:22;97211.47;;;0.34;92.59
82171;BME280;71755;48.038;14.346;2023-12-20T03:40:50;97210.41;;;0.28;93.11
82171;BME280;71755;48.038;14.346;2023-12-20T03:43:16;97205.16;;;0.28;93.46
82171;BME280;71755;48.038;14.346;2023-12-20T03:45:42;97211.78;;;0.24;93.81
82171;BME280;71755;48.038;14.346;2023-12-20T03:48:08;97206.53;;;0.24;94.07
82171;BME280;71755;48.038;14.346;2023-12-20T03:50:34;97197.66;;;0.25;94.38
82171;BME280;71755;48.038;14.346;2023-12-20T03:53:00;97206.34;;;0.25;94.61
82171;BME280;71755;48.038;14.346;2023-12-20T03:55:27;97207.78;;;0.28;94.60
82171;BME280;71755;48.038;14.346;2023-12-20T03:57:53;97213.66;;;0.30;94.52
82171;BME280;71755;48.038;14.346;2023-12-20T04:00:19;97210.47;;;0.35;94.30
82171;BME280;71755;48.038;14.346;2023-12-20T04:02:45;97210.47;;;0.35;94.28
82171;BME280;71755;48.038;14.346;2023-12-20T04:05:11;97191.88;;;0.36;94.55
82171;BME280;71755;48.038;14.346;2023-12-20T04:07:37;97194.50;;;0.36;94.58
82171;BME280;71755;48.038;14.346;2023-12-20T04:10:03;97204.41;;;0.34;94.84
82171;BME280;71755;48.038;14.346;2023-12-20T04:12:30;97194.25;;;0.31;94.96
82171;BME280;71755;48.038;14.346;2023-12-20T04:14:57;97203.78;;;0.32;95.12
82171;BME280;71755;48.038;14.346;2023-12-20T04:17:23;97184.75;;;0.30;95.46
82171;BME280;71755;48.038;14.346;2023-12-20T04:19:50;97176.44;;;0.26;95.54
82171;BME280;71755;48.038;14.346;2023-12-20T04:22:17;97175.44;;;0.27;95.64
82171;BME280;71755;48.038;14.346;2023-12-20T04:24:43;97173.81;;;0.26;95.90
82171;BME280;71755;48.038;14.346;2023-12-20T04:27:09;97173.00;;;0.26;95.88
82171;BME280;71755;48.038;14.346;2023-12-20T04:29:36;97178.69;;;0.29;95.96
82171;BME280;71755;48.038;14.346;2023-12-20T04:32:03;97175.88;;;0.31;95.98
82171;BME280;71755;48.038;14.346;2023-12-20T04:34:29;97180.31;;;0.30;95.91
82171;BME280;71755;48.038;14.346;2023-12-20T04:36:55;97182.75;;;0.32;95.89
82171;BME280;71755;48.038;14.346;2023-12-20T04:39:21;97203.78;;;0.32;95.74
82171;BME280;71755;48.038;14.346;2023-12-20T04:41:47;97196.69;;;0.32;96.05
82171;BME280;71755;48.038;14.346;2023-12-20T04:44:13;97200.13;;;0.33;96.05
82171;BME280;71755;48.038;14.346;2023-12-20T04:46:40;97201.16;;;0.32;96.01
82171;BME280;71755;48.038;14.346;2023-12-20T04:49:06;97206.59;;;0.30;96.07
82171;BME280;71755;48.038;14.346;2023-12-20T04:51:35;97208.59;;;0.28;96.22
82171;BME280;71755;48.038;14.346;2023-12-20T04:54:02;97210.22;;;0.29;96.36
82171;BME280;71755;48.038;14.346;2023-12-20T04:56:28;97201.53;;;0.29;96.45
82171;BME280;71755;48.038;14.346;2023-12-20T04:58:53;97205.34;;;0.26;96.61
82171;BME280;71755;48.038;14.346;2023-12-20T05:01:19;97211.22;;;0.28;96.30
82171;BME280;71755;48.038;14.346;2023-12-20T05:03:45;97210.03;;;0.31;96.53
82171;BME280;71755;48.038;14.346;2023-12-20T05:06:10;97214.28;;;0.32;96.48
82171;BME280;71755;48.038;14.346;2023-12-20T05:08:36;97225.59;;;0.32;96.49
82171;BME280;71755;48.038;14.346;2023-12-20T05:11:03;97224.59;;;0.34;96.36
82171;BME280;71755;48.038;14.346;2023-12-20T05:13:29;97222.41;;;0.37;96.73
82171;BME280;71755;48.038;14.346;2023-12-20T05:15:55;97239.31;;;0.28;97.12
82171;BME280;71755;48.038;14.346;2023-12-20T05:18:21;97238.31;;;0.29;97.17
82171;BME280;71755;48.038;14.346;2023-12-20T05:20:50;97242.56;;;0.09;98.96
82171;BME280;71755;48.038;14.346;2023-12-20T05:23:17;97250.44;;;-0.06;100.00
82171;BME280;71755;48.038;14.346;2023-12-20T05:25:44;97266.94;;;0.03;100.00
82171;BME280;71755;48.038;14.346;2023-12-20T05:28:10;97270.56;;;0.02;100.00
82171;BME280;71755;48.038;14.346;2023-12-20T05:30:36;97281.53;;;-0.24;100.00
82171;BME280;71755;48.038;14.346;2023-12-20T05:33:02;97301.28;;;-0.28;100.00
82171;BME280;71755;48.038;14.346;2023-12-20T05:35:28;97299.91;;;-0.24;100.00
82171;BME280;71755;48.038;14.346;2023-12-20T05:37:54;97303.44;;;-0.17;100.00
82171;BME280;71755;48.038;14.346;2023-12-20T05:40:20;97297.09;;;-0.08;100.00
82171;BME280;71755;48.038;14.346;2023-12-20T05:42:45;97304.13;;;-0.09;100.00
82171;BME280;71755;48.038;14.346;2023-12-20T05:45:12;97302.78;;;-0.05;100.00
82171;BME280;71755;48.038;14.346;2023-12-20T05:47:38;97296.16;;;-0.01;100.00
82171;BME280;71755;48.038;14.346;2023-12-20T05:50:05;97292.28;;;0.31;99.35
82171;BME280;71755;48.038;14.346;2023-12-20T05:52:30;97281.72;;;0.46;97.99
82171;BME280;71755;48.038;14.346;2023-12-20T05:54:56;97275.84;;;0.66;95.61
82171;BME280;71755;48.038;14.346;2023-12-20T05:57:27;97281.72;;;0.68;95.12
82171;BME280;71755;48.038;14.346;2023-12-20T05:59:53;97288.16;;;0.86;94.27
82171;BME280;71755;48.038;14.346;2023-12-20T06:02:19;97282.94;;;1.14;92.01
82171;BME280;71755;48.038;14.346;2023-12-20T06:04:45;97288.13;;;1.08;91.49
82171;BME280;71755;48.038;14.346;2023-12-20T06:07:12;97289.56;;;1.73;87.57
82171;BME280;71755;48.038;14.346;2023-12-20T06:09:38;97280.28;;;2.31;84.73
82171;BME280;71755;48.038;14.346;2023-12-20T06:12:05;97290.22;;;2.29;84.64
82171;BME280;71755;48.038;14.346;2023-12-20T06:14:31;97286.94;;;1.79;88.18
82171;BME280;71755;48.038;14.346;2023-12-20T06:16:57;97283.09;;;1.82;89.34
82171;BME280;71755;48.038;14.346;2023-12-20T06:19:23;97273.59;;;1.81;88.71
82171;BME280;71755;48.038;14.346;2023-12-20T06:21:49;97258.84;;;2.61;85.44
82171;BME280;71755;48.038;14.346;2023-12-20T06:24:15;97253.13;;;2.57;85.16
82171;BME280;71755;48.038;14.346;2023-12-20T06:26:41;97251.53;;;2.63;84.48
82171;BME280;71755;48.038;14.346;2023-12-20T06:29:07;97247.28;;;2.88;83.21
82171;BME280;71755;48.038;14.346;2023-12-20T06:31:33;97264.53;;;2.97;82.52
82171;BME280;71755;48.038;14.346;2023-12-20T06:33:59;97274.25;;;2.90;83.31
82171;BME280;71755;48.038;14.346;2023-12-20T06:36:26;97281.00;;;2.99;82.54
82171;BME280;71755;48.038;14.346;2023-12-20T06:38:52;97275.72;;;2.99;82.72
82171;BME280;71755;48.038;14.346;2023-12-20T06:41:18;97266.16;;;3.11;82.00
82171;BME280;71755;48.038;14.346;2023-12-20T06:43:45;97278.94;;;3.21;82.00
82171;BME280;71755;48.038;14.346;2023-12-20T06:46:11;97279.31;;;3.44;80.90
82171;BME280;71755;48.038;14.346;2023-12-20T06:48:39;97282.19;;;3.17;82.28
82171;BME280;71755;48.038;14.346;2023-12-20T06:51:06;97294.41;;;3.95;80.25
82171;BME280;71755;48.038;14.346;2023-12-20T06:53:32;97292.97;;;4.44;79.10
82171;BME280;71755;48.038;14.346;2023-12-20T06:55:58;97287.16;;;4.98;78.14
82171;BME280;71755;48.038;14.346;2023-12-20T06:58:24;97288.59;;;5.19;77.79
82171;BME280;71755;48.038;14.346;2023-12-20T07:00:50;97289.69;;;5.12;77.75
82171;BME280;71755;48.038;14.346;2023-12-20T07:03:16;97299.47;;;5.11;77.69
82171;BME280;71755;48.038;14.346;2023-12-20T07:05:41;97333.66;;;5.13;78.15
82171;BME280;71755;48.038;14.346;2023-12-20T07:08:07;97318.09;;;4.98;79.25
82171;BME280;71755;48.038;14.346;2023-12-20T07:10:33;97323.88;;;4.88;79.65
82171;BME280;71755;48.038;14.346;2023-12-20T07:12:59;97330.19;;;4.87;79.98
82171;BME280;71755;48.038;14.346;2023-12-20T07:15:25;97342.13;;;4.65;81.38
82171;BME280;71755;48.038;14.346;2023-12-20T07:17:50;97335.03;;;4.59;82.05
82171;BME280;71755;48.038;14.346;2023-12-20T07:20:16;97335.09;;;4.46;83.57
82171;BME280;71755;48.038;14.346;2023-12-20T07:22:42;97337.34;;;4.49;83.39
82171;BME280;71755;48.038;14.346;2023-12-20T07:25:08;97334.28;;;4.45;83.49
82171;BME280;71755;48.038;14.346;2023-12-20T07:27:34;97340.63;;;4.37;83.71
82171;BME280;71755;48.038;14.346;2023-12-20T07:30:00;97339.47;;;4.20;85.07
82171;BME280;71755;48.038;14.346;2023-12-20T07:32:26;97350.28;;;4.05;87.68
82171;BME280;71755;48.038;14.346;2023-12-20T07:34:52;97354.75;;;4.05;88.23
82171;BME280;71755;48.038;14.346;2023-12-20T07:37:20;97359.44;;;4.03;89.32
82171;BME280;71755;48.038;14.346;2023-12-20T07:39:46;97374.34;;;3.84;91.21
82171;BME280;71755;48.038;14.346;2023-12-20T07:42:12;97366.81;;;3.88;91.67
82171;BME280;71755;48.038;14.346;2023-12-20T07:44:39;97373.34;;;3.79;92.22
82171;BME280;71755;48.038;14.346;2023-12-20T07:47:05;97372.53;;;3.65;93.54
82171;BME280;71755;48.038;14.346;2023-12-20T07:49:31;97386.97;;;3.49;94.30
82171;BME280;71755;48.038;14.346;2023-12-20T07:51:57;97382.69;;;3.55;94.91
82171;BME280;71755;48.038;14.346;2023-12-20T07:54:24;97394.09;;;3.42;95.76
82171;BME280;71755;48.038;14.346;2023-12-20T07:56:50;97394.50;;;3.45;96.26
82171;BME280;71755;48.038;14.346;2023-12-20T07:59:16;97392.47;;;3.41;96.58
82171;BME280;71755;48.038;14.346;2023-12-20T08:01:42;97406.47;;;3.41;97.10
82171;BME280;71755;48.038;14.346;2023-12-20T08:04:08;97412.75;;;3.34;97.73
82171;BME280;71755;48.038;14.346;2023-12-20T08:06:34;97420.84;;;3.26;98.98
82171;BME280;71755;48.038;14.346;2023-12-20T08:09:00;97415.78;;;3.18;99.43
82171;BME280;71755;48.038;14.346;2023-12-20T08:11:25;97416.19;;;3.14;100.00
82171;BME280;71755;48.038;14.346;2023-12-20T08:13:51;97413.75;;;3.13;100.00
82171;BME280;71755;48.038;14.346;2023-12-20T08:16:18;97426.75;;;3.14;100.00
82171;BME280;71755;48.038;14.346;2023-12-20T08:18:44;97434.66;;;3.14;100.00
82171;BME280;71755;48.038;14.346;2023-12-20T08:21:10;97434.66;;;3.14;100.00
82171;BME280;71755;48.038;14.346;2023-12-20T08:23:37;97434.03;;;3.12;100.00
82171;BME280;71755;48.038;14.346;2023-12-20T08:26:07;97434.25;;;3.11;100.00
82171;BME280;71755;48.038;14.346;2023-12-20T08:28:33;97427.56;;;3.22;100.00
82171;BME280;71755;48.038;14.346;2023-12-20T08:31:00;97436.28;;;3.22;100.00
82171;BME280;71755;48.038;14.346;2023-12-20T08:33:26;97440.34;;;3.25;100.00
82171;BME280;71755;48.038;14.346;2023-12-20T08:35:52;97440.56;;;3.30;100.00
82171;BME280;71755;48.038;14.346;2023-12-20T08:38:18;97438.78;;;3.37;100.00
82171;BME280;71755;48.038;14.346;2023-12-20T08:40:44;97432.25;;;3.33;100.00
82171;BME280;71755;48.038;14.346;2023-12-20T08:43:10;97441.97;;;3.32;100.00
82171;BME280;71755;48.038;14.346;2023-12-20T08:45:36;97446.44;;;3.25;100.00
82171;BME280;71755;48.038;14.346;2023-12-20T08:48:02;97448.47;;;3.23;100.00
82171;BME280;71755;48.038;14.346;2023-12-20T08:50:29;97446.03;;;3.22;100.00
82171;BME280;71755;48.038;14.346;2023-12-20T08:52:55;97453.97;;;3.22;100.00
82171;BME280;71755;48.038;14.346;2023-12-20T08:55:21;97446.03;;;3.22;100.00
82171;BME280;71755;48.038;14.346;2023-12-20T08:57:47;97451.31;;;3.22;100.00
82171;BME280;71755;48.038;14.346;2023-12-20T09:00:14;97443.59;;;3.20;100.00
82171;BME280;71755;48.038;14.346;2023-12-20T09:02:41;97451.72;;;3.19;100.00
82171;BME280;71755;48.038;14.346;2023-12-20T09:05:07;97446.44;;;3.19;100.00
82171;BME280;71755;48.038;14.346;2023-12-20T09:07:35;97447.06;;;3.21;100.00
82171;BME280;71755;48.038;14.346;2023-12-20T09:10:01;97449.28;;;3.24;100.00
82171;BME280;71755;48.038;14.346;2023-12-20T09:12:28;97451.31;;;3.22;100.00
82171;BME280;71755;48.038;14.346;2023-12-20T09:14:54;97448.28;;;3.25;100.00
82171;BME280;71755;48.038;14.346;2023-12-20T09:17:20;97454.78;;;3.22;100.00
82171;BME280;71755;48.038;14.346;2023-12-20T09:19:48;97445.63;;;3.25;100.00
82171;BME280;71755;48.038;14.346;2023-12-20T09:22:14;97449.28;;;3.24;100.00
82171;BME280;71755;48.038;14.346;2023-12-20T09:24:40;97444.66;;;3.39;100.00
82171;BME280;71755;48.038;14.346;2023-12-20T09:27:06;97444.84;;;3.37;100.00
82171;BME280;71755;48.038;14.346;2023-12-20T09:29:32;97442.03;;;3.39;100.00
82171;BME280;71755;48.038;14.346;2023-12-20T09:31:58;97445.47;;;3.39;100.00
82171;BME280;71755;48.038;14.346;2023-12-20T09:34:24;97442.44;;;3.49;100.00
82171;BME280;71755;48.038;14.346;2023-12-20T09:36:51;97437.16;;;3.49;100.00
82171;BME280;71755;48.038;14.346;2023-12-20T09:39:18;97442.63;;;3.54;100.00
82171;BME280;71755;48.038;14.346;2023-12-20T09:41:46;97449.13;;;3.58;100.00
82171;BME280;71755;48.038;14.346;2023-12-20T09:44:16;97439.78;;;3.62;100.00
82171;BME280;71755;48.038;14.346;2023-12-20T09:46:49;97434.13;;;3.72;100.00
82171;BME280;71755;48.038;14.346;2023-12-20T09:49:17;97424.34;;;3.72;100.00
82171;BME280;71755;48.038;14.346;2023-12-20T09:51:45;97416.22;;;3.81;100.00
82171;BME280;71755;48.038;14.346;2023-12-20T09:54:14;97411.13;;;3.86;100.00
82171;BME280;71755;48.038;14.346;2023-12-20T09:56:41;97400.75;;;3.91;100.00
82171;BME280;71755;48.038;14.346;2023-12-20T09:59:06;97407.44;;;3.93;100.00
82171;BME280;71755;48.038;14.346;2023-12-20T10:01:34;97392.81;;;3.97;100.00
82171;BME280;71755;48.038;14.346;2023-12-20T10:04:06;97401.34;;;3.99;100.00
82171;BME280;71755;48.038;14.346;2023-12-20T10:06:40;97395.22;;;4.05;100.00
82171;BME280;71755;48.038;14.346;2023-12-20T10:09:06;97396.84;;;4.06;100.00
82171;BME280;71755;48.038;14.346;2023-12-20T10:11:32;97392.59;;;4.12;100.00
82171;BME280;71755;48.038;14.346;2023-12-20T10:14:01;97388.50;;;4.16;100.00
82171;BME280;71755;48.038;14.346;2023-12-20T10:16:28;97378.94;;;4.22;100.00
82171;BME280;71755;48.038;14.346;2023-12-20T10:18:54;97384.19;;;4.28;100.00
82171;BME280;71755;48.038;14.346;2023-12-20T10:21:23;97389.06;;;4.31;100.00
82171;BME280;71755;48.038;14.346;2023-12-20T10:23:55;97378.06;;;4.34;100.00
82171;BME280;71755;48.038;14.346;2023-12-20T10:26:23;97383.16;;;4.36;100.00
82171;BME280;71755;48.038;14.346;2023-12-20T10:28:59;97383.13;;;4.43;99.99
82171;BME280;71755;48.038;14.346;2023-12-20T10:31:35;97380.88;;;4.46;99.80
82171;BME280;71755;48.038;14.346;2023-12-20T10:34:02;97380.03;;;4.46;99.85
82171;BME280;71755;48.038;14.346;2023-12-20T10:36:30;97369.06;;;4.49;99.81
82171;BME280;71755;48.038;14.346;2023-12-20T10:38:57;97364.19;;;4.52;99.59
82171;BME280;71755;48.038;14.346;2023-12-20T10:41:28;97362.94;;;4.55;98.94
82171;BME280;71755;48.038;14.346;2023-12-20T10:44:02;97353.97;;;4.56;98.65
82171;BME280;71755;48.038;14.346;2023-12-20T10:46:29;97362.31;;;4.59;98.46
82171;BME280;71755;48.038;14.346;2023-12-20T10:48:57;97358.44;;;4.62;97.68
82171;BME280;71755;48.038;14.346;2023-12-20T10:51:23;97355.56;;;4.63;98.63
82171;BME280;71755;48.038;14.346;2023-12-20T10:53:53;97354.16;;;4.61;98.39
82171;BME280;71755;48.038;14.346;2023-12-20T10:56:19;97352.72;;;4.65;98.91
82171;BME280;71755;48.038;14.346;2023-12-20T10:58:47;97344.97;;;4.63;98.67
82171;BME280;71755;48.038;14.346;2023-12-20T11:01:16;97353.72;;;4.64;98.31
82171;BME280;71755;48.038;14.346;2023-12-20T11:03:53;97352.72;;;4.65;97.43
82171;BME280;71755;48.038;14.346;2023-12-20T11:06:54;97341.53;;;4.63;98.14
82171;BME280;71755;48.038;14.346;2023-12-20T11:09:29;97345.38;;;4.67;97.41
82171;BME280;71755;48.038;14.346;2023-12-20T11:12:17;97332.56;;;4.64;97.22
82171;BME280;71755;48.038;14.346;2023-12-20T11:14:49;97330.72;;;4.64;98.08
82171;BME280;71755;48.038;14.346;2023-12-20T11:17:16;97339.47;;;4.65;97.63
82171;BME280;71755;48.038;14.346;2023-12-20T11:22:31;97342.09;;;4.71;97.62
82171;BME280;71755;48.038;14.346;2023-12-20T11:25:07;97334.75;;;4.74;97.58
82171;BME280;71755;48.038;14.346;2023-12-20T11:27:37;97323.72;;;4.77;96.98
82171;BME280;71755;48.038;14.346;2023-12-20T11:30:06;97346.09;;;4.81;97.70
82171;BME280;71755;48.038;14.346;2023-12-20T11:32:34;97338.75;;;4.83;96.98
82171;BME280;71755;48.038;14.346;2023-12-20T11:35:16;97319.22;;;4.84;97.21
82171;BME280;71755;48.038;14.346;2023-12-20T11:37:42;97322.69;;;4.84;97.06
82171;BME280;71755;48.038;14.346;2023-12-20T11:40:16;97321.66;;;4.85;95.81
82171;BME280;71755;48.038;14.346;2023-12-20T11:42:48;97322.06;;;4.82;95.97
82171;BME280;71755;48.038;14.346;2023-12-20T11:45:17;97326.97;;;4.79;96.38
82171;BME280;71755;48.038;14.346;2023-12-20T11:47:49;97329.03;;;4.77;97.21
82171;BME280;71755;48.038;14.346;2023-12-20T11:50:20;97328.44;;;4.75;97.56
82171;BME280;71755;48.038;14.346;2023-12-20T11:52:47;97326.22;;;4.71;97.54
82171;BME280;71755;48.038;14.346;2023-12-20T11:55:13;97325.41;;;4.71;96.48
82171;BME280;71755;48.038;14.346;2023-12-20T11:57:39;97322.97;;;4.69;97.27
82171;BME280;71755;48.038;14.346;2023-12-20T12:00:06;97336.03;;;4.64;97.30
82171;BME280;71755;48.038;14.346;2023-12-20T12:02:32;97343.97;;;4.64;97.19
82171;BME280;71755;48.038;14.346;2023-12-20T12:04:59;97335.63;;;4.61;97.52
82171;BME280;71755;48.038;14.346;2023-12-20T12:07:25;97337.69;;;4.59;98.23
82171;BME280;71755;48.038;14.346;2023-12-20T12:09:51;97333.63;;;4.56;98.79
82171;BME280;71755;48.038;14.346;2023-12-20T12:12:17;97345.03;;;4.57;98.27
82171;BME280;71755;48.038;14.346;2023-12-20T12:14:45;97340.16;;;4.54;99.12
82171;BME280;71755;48.038;14.346;2023-12-20T12:17:12;97342.22;;;4.52;99.40
82171;BME280;71755;48.038;14.346;2023-12-20T12:19:40;97334.69;;;4.49;99.97
82171;BME280;71755;48.038;14.346;2023-12-20T12:22:13;97327.56;;;4.43;100.00
82171;BME280;71755;48.038;14.346;2023-12-20T12:24:40;97325.56;;;4.38;100.00
82171;BME280;71755;48.038;14.346;2023-12-20T12:27:07;97321.69;;;4.40;100.00
82171;BME280;71755;48.038;14.346;2023-12-20T12:29:37;97331.25;;;4.42;100.00
82171;BME280;71755;48.038;14.346;2023-12-20T12:32:09;97329.63;;;4.40;100.00
82171;BME280;71755;48.038;14.346;2023-12-20T12:34:36;97326.38;;;4.38;100.00
82171;BME280;71755;48.038;14.346;2023-12-20T12:37:03;97321.69;;;4.40;100.00
82171;BME280;71755;48.038;14.346;2023-12-20T12:39:30;97323.09;;;4.43;100.00
82171;BME280;71755;48.038;14.346;2023-12-20T12:41:56;97328.59;;;4.42;100.00
82171;BME280;71755;48.038;14.346;2023-12-20T12:44:23;97317.81;;;4.43;100.00
82171;BME280;71755;48.038;14.346;2023-12-20T12:46:52;97318.84;;;4.42;99.44
82171;BME280;71755;48.038;14.346;2023-12-20T12:49:20;97316.41;;;4.40;99.35
82171;BME280;71755;48.038;14.346;2023-12-20T12:51:49;97314.56;;;4.41;99.23
82171;BME280;71755;48.038;14.346;2023-12-20T12:54:14;97307.88;;;4.38;99.26
82171;BME280;71755;48.038;14.346;2023-12-20T12:56:42;97295.47;;;4.39;99.81
82171;BME280;71755;48.038;14.346;2023-12-20T12:59:08;97296.88;;;4.42;98.98